Time;durP1;ratioP1;P1;durP2;ratioP2;P2;SDS_P1;SDS_P2;PMS_P1;PMS_P2;Temp;Humidity;BMP_temperature;BMP_pressure;BME280_temperature;BME280_humidity;BME280_pressure;Samples;Min_cycle;Max_cycle;Signal;HPM_P1;HPM_P2
2023/07/20 00:01:51;;;;;;;;;7.33;6.67;;;;;19.64;59.41;101009.88;5120423;27;45377;-80
2023/07/20 00:04:16;;;;;;;;;3.67;3.67;;;;;19.61;58.98;101003.91;5132092;27;46534;-80
2023/07/20 00:06:41;;;;;;;;;7.67;7.33;;;;;19.61;59.45;101009.31;5125628;27;45483;-81
2023/07/20 00:09:07;;;;;;;;;3.67;3.67;;;;;19.51;59.91;101009.22;5119507;27;45446;-80
2023/07/20 00:11:37;;;;;;;;;4.67;4.67;;;;;19.52;60.35;101028.94;5101336;27;45467;-80
2023/07/20 00:14:02;;;;;;;;;5.67;5.67;;;;;19.46;60.59;101019.56;5110622;27;47218;-80
2023/07/20 00:16:27;;;;;;;;;4.67;4.67;;;;;19.41;60.88;101022.66;5135718;27;45233;-82
2023/07/20 00:18:53;;;;;;;;;5.00;5.00;;;;;19.38;60.84;101027.44;5119291;27;45179;-80
2023/07/20 00:21:18;;;;;;;;;7.33;5.33;;;;;19.29;60.71;101012.94;5119321;27;45467;-81
2023/07/20 00:23:44;;;;;;;;;7.33;4.00;;;;;19.21;60.86;101012.72;5118119;27;45522;-81
2023/07/20 00:26:09;;;;;;;;;8.00;7.00;;;;;19.14;61.31;100995.34;5100444;27;45420;-80
2023/07/20 00:28:35;;;;;;;;;4.67;4.67;;;;;19.14;61.57;101011.50;5118479;27;45554;-81
2023/07/20 00:31:00;;;;;;;;;5.67;5.67;;;;;19.20;62.15;101029.03;5139887;27;45589;-81
2023/07/20 00:33:26;;;;;;;;;6.33;5.00;;;;;19.14;61.40;101017.78;5115616;27;48457;-81
2023/07/20 00:35:51;;;;;;;;;7.67;6.00;;;;;19.18;62.21;101025.63;5119688;27;45767;-81
2023/07/20 00:38:17;;;;;;;;;5.33;5.33;;;;;19.04;61.95;101010.63;5120782;27;45451;-81
2023/07/20 00:40:42;;;;;;;;;6.00;6.00;;;;;19.02;62.50;101017.97;5119924;27;45376;-81
2023/07/20 00:43:09;;;;;;;;;8.33;6.00;;;;;19.02;62.59;101023.38;5119821;27;45278;-79
2023/07/20 00:45:35;;;;;;;;;4.00;4.00;;;;;19.07;62.27;101026.53;5139863;27;45234;-81
2023/07/20 00:48:01;;;;;;;;;6.00;5.00;;;;;19.07;62.79;101021.13;5137594;27;45319;-80
2023/07/20 00:50:28;;;;;;;;;7.67;5.33;;;;;19.00;63.26;101025.31;5120907;27;45575;-81
2023/07/20 00:52:56;;;;;;;;;7.33;6.67;;;;;18.65;63.39;100975.25;5138219;27;46205;-79
2023/07/20 00:55:23;;;;;;;;;6.00;5.00;;;;;18.91;63.24;101020.72;5118477;27;45534;-81
2023/07/20 00:57:49;;;;;;;;;7.00;6.00;;;;;18.90;63.41;101019.00;5133423;27;45374;-80
2023/07/20 01:00:15;;;;;;;;;4.67;4.67;;;;;18.91;63.25;101018.03;5118743;27;45218;-82
2023/07/20 01:02:40;;;;;;;;;4.67;4.67;;;;;18.82;63.65;100993.56;5118303;27;46692;-82
2023/07/20 01:05:07;;;;;;;;;6.00;6.00;;;;;18.87;63.15;101014.72;5117951;27;45503;-80
2023/07/20 01:07:38;;;;;;;;;8.00;5.00;;;;;18.96;63.30;101021.19;5124866;27;45308;-81
2023/07/20 01:10:19;;;;;;;;;6.00;6.00;;;;;18.94;63.17;101012.38;5118566;27;45429;-81
2023/07/20 01:12:50;;;;;;;;;6.00;6.00;;;;;18.97;62.93;101017.50;5125757;27;45557;-81
2023/07/20 01:15:15;;;;;;;;;6.33;4.00;;;;;18.96;62.56;101016.63;5117427;27;45337;-80
2023/07/20 01:17:40;;;;;;;;;7.00;5.33;;;;;18.89;63.25;101015.47;5130811;27;45402;-80
2023/07/20 01:20:10;;;;;;;;;6.33;5.33;;;;;18.85;63.63;101008.59;5137286;27;45519;-80
2023/07/20 01:23:00;;;;;;;;;7.00;6.00;;;;;18.89;63.26;101014.63;5137980;27;45477;-80
2023/07/20 01:25:52;;;;;;;;;7.33;6.00;;;;;18.68;63.38;100998.38;5138770;27;45470;-81
2023/07/20 01:28:26;;;;;;;;;7.00;7.00;;;;;18.85;63.26;101009.44;5137262;27;46193;-80
2023/07/20 01:31:28;;;;;;;;;5.67;5.00;;;;;18.82;63.38;101003.47;5138021;27;45443;-79
2023/07/20 01:34:03;;;;;;;;;6.33;6.33;;;;;18.74;64.06;100998.72;5137445;27;45573;-81
2023/07/20 01:36:34;;;;;;;;;4.67;4.67;;;;;18.65;63.65;100983.34;5136873;27;45491;-81
2023/07/20 01:39:00;;;;;;;;;5.33;5.33;;;;;18.76;64.08;101002.16;5138955;27;45486;-80
2023/07/20 01:41:25;;;;;;;;;5.33;5.33;;;;;18.76;63.95;100999.47;5138840;27;45269;-80
2023/07/20 01:43:51;;;;;;;;;4.67;4.67;;;;;18.69;64.08;100995.56;5115025;27;47174;-80
2023/07/20 01:46:16;;;;;;;;;4.33;4.33;;;;;18.75;64.05;101000.47;5121970;27;45419;-79
2023/07/20 01:48:42;;;;;;;;;6.67;4.33;;;;;18.75;64.60;100999.56;5138544;27;45183;-80
2023/07/20 01:51:07;;;;;;;;;6.33;5.00;;;;;18.75;64.06;100994.19;5139023;27;45244;-80
2023/07/20 01:53:32;;;;;;;;;6.00;5.67;;;;;18.80;64.11;101000.06;5112058;27;47222;-79
2023/07/20 01:55:58;;;;;;;;;5.00;5.00;;;;;18.67;64.41;100975.97;5116602;27;45228;-80
2023/07/20 01:58:24;;;;;;;;;5.33;5.00;;;;;18.72;64.52;100980.97;5117190;27;45348;-80
2023/07/20 02:00:50;;;;;;;;;6.00;6.00;;;;;18.53;64.52;100952.88;5117759;27;45590;-78
2023/07/20 02:03:15;;;;;;;;;6.00;6.00;;;;;18.70;64.85;100991.88;5131751;27;45526;-79
2023/07/20 02:05:43;;;;;;;;;4.33;4.33;;;;;18.64;64.99;100983.47;5117468;27;52115;-79
2023/07/20 02:08:09;;;;;;;;;6.33;6.33;;;;;18.61;64.82;100980.97;5137351;27;45227;-78
2023/07/20 02:10:35;;;;;;;;;6.67;6.67;;;;;18.63;64.92;100985.28;5138251;27;45254;-79
2023/07/20 02:13:00;;;;;;;;;6.00;5.00;;;;;18.61;65.10;100987.22;5136480;27;47493;-79
2023/07/20 02:15:27;;;;;;;;;5.00;5.00;;;;;18.49;65.06;100964.00;5137827;27;45354;-79
2023/07/20 02:17:52;;;;;;;;;6.00;4.67;;;;;18.55;65.76;100977.81;5119674;27;45421;-79
2023/07/20 02:20:19;;;;;;;;;6.00;6.00;;;;;18.44;65.64;100961.69;5132410;27;45602;-80
2023/07/20 02:22:44;;;;;;;;;6.00;6.00;;;;;18.48;65.27;100973.06;5126454;27;45947;-79
2023/07/20 02:25:09;;;;;;;;;8.67;6.00;;;;;18.51;65.76;100975.53;5138383;27;45473;-79
2023/07/20 02:27:35;;;;;;;;;6.33;6.33;;;;;18.46;66.08;100972.34;5141648;27;45895;-80
2023/07/20 02:30:00;;;;;;;;;7.00;4.00;;;;;18.30;65.43;100943.16;5133842;27;45473;-80
2023/07/20 02:32:25;;;;;;;;;8.67;5.00;;;;;18.54;65.40;100977.97;5122953;27;45386;-79
2023/07/20 02:34:51;;;;;;;;;6.33;6.33;;;;;18.54;65.48;100977.97;5141686;27;45418;-80
2023/07/20 02:37:17;;;;;;;;;5.00;5.00;;;;;18.45;65.58;100962.56;5141728;27;45352;-80
2023/07/20 02:39:43;;;;;;;;;6.00;4.33;;;;;18.46;65.58;100964.25;5140542;27;45318;-80
2023/07/20 02:42:08;;;;;;;;;7.00;6.00;;;;;18.28;66.23;100951.34;5139817;27;46102;-79
2023/07/20 02:44:34;;;;;;;;;6.00;6.00;;;;;18.23;65.45;100939.25;5141161;27;45361;-80
2023/07/20 02:46:59;;;;;;;;;6.33;5.33;;;;;18.35;65.79;100970.53;5139496;27;45310;-80
2023/07/20 02:49:24;;;;;;;;;8.00;8.00;;;;;18.44;65.78;100974.31;5104773;27;45586;-80
2023/07/20 02:51:50;;;;;;;;;7.00;6.00;;;;;18.42;65.45;100971.75;5101920;27;48225;-80
2023/07/20 02:54:15;;;;;;;;;8.00;6.00;;;;;18.40;65.38;100972.88;5137896;27;45502;-78
2023/07/20 02:56:40;;;;;;;;;7.67;5.67;;;;;18.34;65.62;100958.06;5141758;27;45152;-80
2023/07/20 02:59:06;;;;;;;;;4.00;4.00;;;;;18.34;65.32;100962.59;5141610;27;45565;-80
2023/07/20 03:01:31;;;;;;;;;10.00;6.00;;;;;18.47;65.70;100980.28;5139517;27;46212;-81
2023/07/20 03:03:57;;;;;;;;;5.67;5.67;;;;;18.51;65.37;100991.69;5139449;27;45574;-79
2023/07/20 03:06:23;;;;;;;;;8.33;7.00;;;;;18.49;65.23;100977.47;5141063;27;45391;-80
2023/07/20 03:08:51;;;;;;;;;4.33;4.33;;;;;18.45;65.41;100976.03;5139919;27;45960;-80
2023/07/20 03:11:18;;;;;;;;;7.00;4.00;;;;;18.48;65.34;100975.75;5110522;27;47685;-80
2023/07/20 03:13:43;;;;;;;;;4.00;4.00;;;;;18.51;65.89;100980.91;5120911;27;45498;-80
2023/07/20 03:16:15;;;;;;;;;4.67;4.00;;;;;18.45;65.54;100976.03;5141063;27;45440;-80
2023/07/20 03:18:41;;;;;;;;;6.33;6.33;;;;;18.45;65.95;100976.03;5141186;27;45368;-79
2023/07/20 03:21:07;;;;;;;;;6.33;6.33;;;;;18.21;66.18;100952.81;5136144;27;45926;-80
2023/07/20 03:23:33;;;;;;;;;6.00;4.33;;;;;18.19;66.51;100960.19;5138908;27;45314;-80
2023/07/20 03:25:58;;;;;;;;;9.00;6.00;;;;;18.23;66.14;100975.13;5136728;27;45370;-80
2023/07/20 03:28:24;;;;;;;;;6.00;6.00;;;;;18.22;66.01;100965.31;5120253;27;45364;-79
2023/07/20 03:30:58;;;;;;;;;5.33;5.33;;;;;18.19;66.20;100948.56;5101365;27;46003;-79
2023/07/20 03:33:31;;;;;;;;;7.33;4.33;;;;;18.40;66.08;100984.50;5120796;27;45407;-79
2023/07/20 03:35:56;;;;;;;;;6.00;4.00;;;;;18.39;66.36;100984.63;5119297;27;45400;-79
2023/07/20 03:38:22;;;;;;;;;5.67;5.00;;;;;18.20;66.18;100950.25;5120026;27;45322;-79
2023/07/20 03:40:52;;;;;;;;;6.67;6.00;;;;;18.34;66.67;100978.75;5124498;27;45482;-80
2023/07/20 03:43:18;;;;;;;;;7.67;6.67;;;;;18.26;66.33;100977.56;5120346;27;45374;-80
2023/07/20 03:45:45;;;;;;;;;5.33;5.33;;;;;18.28;66.39;100982.81;5101484;27;45239;-80
2023/07/20 03:48:11;;;;;;;;;9.00;6.00;;;;;18.20;66.35;100969.97;5119694;27;45377;-80
2023/07/20 03:50:37;;;;;;;;;5.33;5.33;;;;;18.22;65.88;100981.47;5122912;27;46224;-80
2023/07/20 03:53:02;;;;;;;;;4.00;4.00;;;;;18.27;66.83;100999.94;5140099;27;45460;-80
2023/07/20 03:55:28;;;;;;;;;3.67;3.67;;;;;18.25;66.34;100994.69;5140271;27;45436;-80
2023/07/20 03:57:53;;;;;;;;;6.00;5.00;;;;;18.19;66.75;100992.47;5140522;27;45403;-80
2023/07/20 04:00:18;;;;;;;;;6.00;4.33;;;;;18.20;66.68;100988.81;5137145;27;48324;-80
2023/07/20 04:02:44;;;;;;;;;7.67;6.00;;;;;18.21;66.70;100984.28;5140417;27;45398;-80
2023/07/20 04:05:09;;;;;;;;;12.67;9.67;;;;;18.15;67.12;100982.97;5140087;27;45376;-80
2023/07/20 04:07:35;;;;;;;;;6.00;5.00;;;;;18.09;67.30;100986.13;5140182;27;45309;-80
2023/07/20 04:10:00;;;;;;;;;8.00;8.00;;;;;18.08;67.16;100984.41;5139990;27;45260;-79
2023/07/20 04:12:25;;;;;;;;;9.00;7.00;;;;;18.02;67.47;100974.16;5118810;27;45202;-81
2023/07/20 04:14:51;;;;;;;;;5.33;5.33;;;;;17.98;67.19;100967.34;5119388;27;45368;-80
2023/07/20 04:17:18;;;;;;;;;7.00;4.67;;;;;18.13;67.33;100984.91;5119346;27;45496;-79
2023/07/20 04:19:43;;;;;;;;;4.33;4.00;;;;;18.09;67.50;100969.97;5118090;27;46769;-79
2023/07/20 04:22:09;;;;;;;;;7.00;5.67;;;;;18.16;67.41;100987.34;5118517;27;45452;-79
2023/07/20 04:24:34;;;;;;;;;8.33;5.00;;;;;18.18;67.64;100980.00;5119001;27;45360;-81
2023/07/20 04:26:59;;;;;;;;;6.00;6.00;;;;;18.21;67.27;100978.91;5119359;27;45320;-80
2023/07/20 04:29:25;;;;;;;;;12.00;9.33;;;;;18.22;67.42;100970.69;5118722;27;46615;-80
2023/07/20 04:31:50;;;;;;;;;9.00;9.00;;;;;18.26;67.21;100972.16;5122142;27;45476;-79
2023/07/20 04:34:16;;;;;;;;;5.00;3.67;;;;;18.20;67.21;100963.72;5100505;27;45465;-79
2023/07/20 04:36:41;;;;;;;;;8.00;5.00;;;;;18.14;67.39;100957.03;5119132;27;45771;-81
2023/07/20 04:39:08;;;;;;;;;8.33;6.33;;;;;18.28;67.42;100972.03;5118512;27;46063;-80
2023/07/20 04:41:33;;;;;;;;;6.33;6.33;;;;;18.26;67.33;100976.69;5111109;27;45550;-80
2023/07/20 04:43:59;;;;;;;;;7.67;7.67;;;;;18.31;67.34;100976.31;5121940;27;45473;-80
2023/07/20 04:46:24;;;;;;;;;8.00;6.00;;;;;18.25;67.61;100948.91;5118910;27;45436;-79
2023/07/20 04:48:49;;;;;;;;;10.33;8.00;;;;;18.32;67.79;100967.25;5120722;27;45338;-80
2023/07/20 04:51:17;;;;;;;;;5.00;5.00;;;;;18.41;67.51;100969.19;5123913;27;45476;-80
2023/07/20 04:53:42;;;;;;;;;6.00;5.67;;;;;18.47;66.85;100960.59;5117163;27;45494;-80
2023/07/20 04:56:08;;;;;;;;;5.00;5.00;;;;;18.43;67.23;100948.38;5118687;27;45585;-79
2023/07/20 04:58:33;;;;;;;;;6.67;4.67;;;;;18.31;67.26;100925.16;5121621;27;45408;-79
2023/07/20 05:00:58;;;;;;;;;6.00;6.00;;;;;18.55;67.95;100975.13;5121314;27;45260;-78
2023/07/20 05:03:24;;;;;;;;;4.00;4.00;;;;;18.55;67.88;100976.97;5118387;27;45238;-79
2023/07/20 05:05:49;;;;;;;;;7.00;5.00;;;;;18.52;67.86;100969.16;5119045;27;45214;-80
2023/07/20 05:08:16;;;;;;;;;4.00;4.00;;;;;18.61;67.55;100976.44;5117960;27;45919;-80
2023/07/20 05:10:41;;;;;;;;;4.00;4.00;;;;;18.72;67.36;100983.66;5121414;27;45438;-80
2023/07/20 05:13:07;;;;;;;;;7.00;7.00;;;;;18.71;67.19;100961.25;5117517;27;45785;-80
2023/07/20 05:15:35;;;;;;;;;6.67;5.00;;;;;18.68;66.84;100964.22;5118393;27;45624;-80
2023/07/20 05:18:01;;;;;;;;;4.00;4.00;;;;;18.69;66.68;100960.53;5099332;27;46715;-80
2023/07/20 05:20:26;;;;;;;;;4.00;4.00;;;;;18.80;66.64;100965.88;5121311;27;45341;-80
2023/07/20 05:22:52;;;;;;;;;6.00;4.00;;;;;18.88;66.00;100969.75;5118565;27;45215;-78
2023/07/20 05:25:18;;;;;;;;;6.00;5.00;;;;;19.05;65.91;100986.22;5099818;27;45515;-80
2023/07/20 05:27:46;;;;;;;;;3.67;3.67;;;;;19.05;65.73;100978.13;5118088;27;45269;-80
2023/07/20 05:30:11;;;;;;;;;3.33;3.33;;;;;18.93;65.69;100948.66;5118762;27;45585;-82
2023/07/20 05:32:37;;;;;;;;;5.33;5.00;;;;;19.12;65.62;100983.84;5123177;27;45357;-80
2023/07/20 05:35:03;;;;;;;;;9.00;6.67;;;;;19.32;64.89;100972.19;5120807;27;44981;-84
2023/07/20 05:37:28;;;;;;;;;5.67;5.67;;;;;19.66;63.08;100950.38;5141306;27;45265;-84
2023/07/20 05:39:53;;;;;;;;;8.00;6.67;;;;;20.14;62.39;100984.78;5143321;27;45171;-83
2023/07/20 05:42:19;;;;;;;;;8.00;5.00;;;;;19.91;61.87;100940.94;5123585;27;45507;-83
2023/07/20 05:44:44;;;;;;;;;7.67;6.67;;;;;20.08;61.88;100980.81;5120177;27;45289;-84
2023/07/20 05:47:10;;;;;;;;;2.67;2.00;;;;;19.80;61.96;100944.63;5118775;27;45427;-83
2023/07/20 05:49:36;;;;;;;;;4.00;4.00;;;;;19.80;62.20;100958.13;5117567;27;45710;-81
2023/07/20 05:52:01;;;;;;;;;4.67;4.33;;;;;20.10;61.79;100986.06;5120826;27;45230;-76
2023/07/20 05:54:27;;;;;;;;;7.33;4.00;;;;;20.12;61.82;100986.78;5117944;27;45591;-78
2023/07/20 05:56:52;;;;;;;;;5.00;4.00;;;;;20.03;61.99;100956.91;5104038;27;48013;-75
2023/07/20 05:59:19;;;;;;;;;6.00;6.00;;;;;19.93;61.88;100945.25;5137655;27;45344;-74
2023/07/20 06:01:45;;;;;;;;;5.00;5.00;;;;;20.07;61.93;100979.09;5130785;27;45465;-76
2023/07/20 06:04:10;;;;;;;;;7.33;7.00;;;;;20.10;61.99;100977.97;5116027;27;45487;-75
2023/07/20 06:06:36;;;;;;;;;5.33;4.33;;;;;20.07;61.84;100972.84;5138164;27;45708;-77
2023/07/20 06:09:09;;;;;;;;;5.67;4.00;;;;;20.09;61.54;100977.13;5137744;27;45287;-78
2023/07/20 06:11:34;;;;;;;;;3.00;3.00;;;;;19.67;61.97;100941.31;5138110;27;45332;-77
2023/07/20 06:14:00;;;;;;;;;6.67;5.67;;;;;19.68;61.99;100945.72;5129702;27;45328;-76
2023/07/20 06:16:25;;;;;;;;;7.00;5.00;;;;;19.90;61.86;100959.00;5116741;27;62381;-77
2023/07/20 06:18:50;;;;;;;;;5.67;4.33;;;;;20.06;61.46;100976.53;5117119;27;45372;-76
2023/07/20 06:21:16;;;;;;;;;6.00;4.33;;;;;19.90;61.90;100969.78;5116250;27;45432;-76
2023/07/20 06:23:41;;;;;;;;;8.00;3.67;;;;;19.78;62.07;100975.44;5137954;27;45356;-74
2023/07/20 06:26:07;;;;;;;;;8.33;4.67;;;;;19.54;62.31;100943.38;5137544;27;45373;-77
2023/07/20 06:28:32;;;;;;;;;6.00;5.00;;;;;19.77;62.37;100979.13;5119256;27;45355;-76
2023/07/20 06:31:04;;;;;;;;;5.00;5.00;;;;;19.59;62.49;100968.13;5119110;27;45476;-77
2023/07/20 06:33:29;;;;;;;;;4.33;4.33;;;;;19.66;62.58;100975.53;5137877;27;45428;-76
2023/07/20 06:35:56;;;;;;;;;4.00;4.00;;;;;19.97;61.98;100980.91;5119042;27;47902;-76
2023/07/20 06:38:23;;;;;;;;;6.67;6.67;;;;;20.68;60.33;100983.47;5125142;27;45350;-77
2023/07/20 06:40:49;;;;;;;;;7.33;5.67;;;;;20.91;59.10;100966.84;5135927;27;45525;-77
2023/07/20 06:43:14;;;;;;;;;6.67;6.67;;;;;20.82;58.71;100969.53;5137396;27;45402;-77
2023/07/20 06:45:41;;;;;;;;;6.00;6.00;;;;;20.66;59.30;100977.38;5137287;27;45402;-77
2023/07/20 06:48:06;;;;;;;;;3.00;2.67;;;;;20.53;59.63;100975.78;5137446;27;45352;-75
2023/07/20 06:50:32;;;;;;;;;6.33;5.00;;;;;20.72;59.45;100976.81;5118990;27;45342;-75
2023/07/20 06:52:58;;;;;;;;;5.00;5.00;;;;;21.16;58.34;100978.06;5138021;27;45565;-76
2023/07/20 06:55:24;;;;;;;;;8.00;7.00;;;;;21.53;57.41;100970.03;5117778;27;45374;-75
2023/07/20 06:57:49;;;;;;;;;5.67;4.00;;;;;21.83;56.44;100971.63;5118789;27;45744;-78
2023/07/20 07:00:15;;;;;;;;;12.67;7.33;;;;;21.78;56.42;100980.19;5137405;27;45458;-76
2023/07/20 07:02:40;;;;;;;;;7.00;5.67;;;;;21.61;56.32;100983.66;5137577;27;45625;-76
2023/07/20 07:05:06;;;;;;;;;8.67;8.33;;;;;21.47;57.00;100970.59;5137216;27;46445;-76
2023/07/20 07:07:31;;;;;;;;;8.33;7.00;;;;;21.33;57.29;100976.47;5137195;27;45401;-75
2023/07/20 07:09:57;;;;;;;;;8.33;8.33;;;;;21.06;57.95;100971.81;5137543;27;45448;-75
2023/07/20 07:12:22;;;;;;;;;8.33;6.67;;;;;20.97;57.88;100962.72;5121904;27;45628;-76
2023/07/20 07:14:48;;;;;;;;;7.00;7.00;;;;;20.90;58.43;100970.53;5140465;27;51541;-74
2023/07/20 07:17:14;;;;;;;;;12.33;9.00;;;;;20.85;58.58;100963.88;5121988;27;45367;-75
2023/07/20 07:19:40;;;;;;;;;8.33;7.33;;;;;20.83;58.65;100960.44;5140934;27;45390;-78
2023/07/20 07:22:06;;;;;;;;;9.67;8.00;;;;;20.78;58.91;100951.91;5140946;27;45277;-76
2023/07/20 07:24:33;;;;;;;;;9.67;8.33;;;;;20.83;58.84;100965.84;5140485;27;45667;-78
2023/07/20 07:27:00;;;;;;;;;10.33;8.33;;;;;20.94;58.53;100957.59;5122378;27;46057;-79
2023/07/20 07:29:25;;;;;;;;;6.67;6.67;;;;;21.01;58.25;100958.72;5140552;27;45533;-78
2023/07/20 07:31:53;;;;;;;;;7.67;7.00;;;;;21.15;58.25;100963.69;5121846;27;45432;-78
2023/07/20 07:34:19;;;;;;;;;8.33;7.33;;;;;21.38;56.93;100957.97;5140355;27;46236;-78
2023/07/20 07:36:45;;;;;;;;;6.33;5.67;;;;;21.72;55.55;100972.66;5140269;27;45410;-78
2023/07/20 07:39:13;;;;;;;;;8.67;8.67;;;;;21.82;55.51;100969.06;5140405;27;45493;-77
2023/07/20 07:41:39;;;;;;;;;11.67;8.33;;;;;21.41;55.93;100941.44;5121739;27;45457;-76
2023/07/20 07:44:04;;;;;;;;;7.00;7.00;;;;;21.39;56.73;100973.22;5140176;27;46237;-78
2023/07/20 07:46:30;;;;;;;;;10.33;6.33;;;;;21.18;56.08;100930.94;5121879;27;45294;-77
2023/07/20 07:48:56;;;;;;;;;9.33;8.00;;;;;21.38;56.37;100966.94;5140564;27;46048;-78
2023/07/20 07:51:21;;;;;;;;;8.67;8.67;;;;;21.36;56.58;100977.06;5140800;27;45465;-76
2023/07/20 07:53:48;;;;;;;;;9.33;7.00;;;;;21.28;56.36;100960.69;5121302;27;46174;-77
2023/07/20 07:56:14;;;;;;;;;6.67;5.67;;;;;21.35;56.35;100971.78;5140214;27;45405;-79
2023/07/20 07:58:40;;;;;;;;;6.33;6.33;;;;;21.25;56.05;100973.63;5121597;27;45407;-78
2023/07/20 08:01:05;;;;;;;;;7.33;7.33;;;;;21.23;56.39;100962.13;5140264;27;45271;-75
2023/07/20 08:03:31;;;;;;;;;10.33;9.00;;;;;21.26;56.53;100957.28;5140165;27;45368;-80
2023/07/20 08:05:56;;;;;;;;;10.00;10.00;;;;;21.32;56.72;100966.66;5139866;27;45332;-78
2023/07/20 08:08:22;;;;;;;;;8.33;7.33;;;;;21.41;55.86;100963.09;5139755;27;45419;-78
2023/07/20 08:10:48;;;;;;;;;6.33;5.33;;;;;21.42;55.56;100965.66;5140201;27;45604;-76
2023/07/20 08:13:14;;;;;;;;;5.33;4.67;;;;;21.47;55.39;100962.47;5140080;27;46144;-77
2023/07/20 08:15:42;;;;;;;;;5.00;4.00;;;;;21.56;55.18;100953.50;5139964;27;45312;-80
2023/07/20 08:18:07;;;;;;;;;8.00;8.00;;;;;21.68;55.19;100963.13;5139904;27;45444;-76
2023/07/20 08:20:35;;;;;;;;;8.00;7.00;;;;;21.74;55.00;100951.69;5121452;27;45313;-77
2023/07/20 08:23:01;;;;;;;;;7.00;7.00;;;;;21.84;54.89;100951.66;5139828;27;45557;-78
2023/07/20 08:25:26;;;;;;;;;7.00;6.00;;;;;22.00;54.51;100959.13;5139523;27;45260;-78
2023/07/20 08:27:52;;;;;;;;;8.00;8.00;;;;;21.96;54.00;100944.19;5139680;27;45401;-76
2023/07/20 08:30:23;;;;;;;;;10.67;7.67;;;;;21.86;53.63;100943.38;5139819;27;45229;-77
2023/07/20 08:32:48;;;;;;;;;9.33;7.00;;;;;21.61;53.58;100926.81;5120768;27;47748;-78
2023/07/20 08:35:15;;;;;;;;;6.67;4.33;;;;;21.74;53.43;100930.03;5139512;27;45261;-78
2023/07/20 08:37:40;;;;;;;;;12.00;7.67;;;;;21.99;53.55;100946.59;5139915;27;45436;-78
2023/07/20 08:40:09;;;;;;;;;7.00;5.67;;;;;22.06;53.10;100958.56;5121067;27;45885;-78
2023/07/20 08:42:35;;;;;;;;;6.00;5.00;;;;;22.06;53.29;100923.34;5120855;27;46370;-79
2023/07/20 08:45:06;;;;;;;;;8.67;5.67;;;;;22.11;53.23;100904.78;5139716;27;45346;-79
2023/07/20 08:47:31;;;;;;;;;9.00;7.00;;;;;22.23;52.48;100937.94;5139737;27;45390;-79
2023/07/20 08:49:58;;;;;;;;;7.00;6.00;;;;;22.12;50.98;100933.56;5139604;27;45499;-77
2023/07/20 08:52:24;;;;;;;;;6.00;4.67;;;;;22.11;51.51;100922.88;5139166;27;46152;-80
2023/07/20 08:54:52;;;;;;;;;4.33;3.33;;;;;22.13;51.50;100888.38;5139262;27;45461;-80
2023/07/20 08:57:21;;;;;;;;;6.00;5.67;;;;;22.34;51.74;100916.88;5139059;27;45377;-80
2023/07/20 08:59:46;;;;;;;;;6.50;5.00;;;;;22.38;51.68;100902.00;5139511;27;45534;-77
2023/07/20 09:02:17;;;;;;;;;6.00;4.67;;;;;22.56;51.57;100933.69;5120205;27;48072;-79
2023/07/20 09:04:44;;;;;;;;;5.25;5.25;;;;;22.45;51.22;100918.50;5120236;27;45694;-78
2023/07/20 09:07:10;;;;;;;;;5.67;4.67;;;;;22.60;50.83;100933.22;5138777;27;45452;-79
2023/07/20 09:09:41;;;;;;;;;6.25;5.00;;;;;22.66;50.73;100920.91;5139369;27;45442;-78
2023/07/20 09:12:13;;;;;;;;;9.67;9.33;;;;;22.70;50.49;100913.31;5138975;27;46205;-76
2023/07/20 09:14:38;;;;;;;;;5.00;4.00;;;;;22.87;49.31;100928.75;5119774;27;45275;-78
2023/07/20 09:17:04;;;;;;;;;8.33;6.00;;;;;22.75;49.57;100919.97;5138920;27;45345;-76
2023/07/20 09:19:29;;;;;;;;;4.75;4.75;;;;;22.59;48.67;100892.72;5120000;27;45261;-78
2023/07/20 09:21:56;;;;;;;;;7.00;7.00;;;;;22.70;48.61;100914.16;5119872;27;46922;-77
2023/07/20 09:24:21;;;;;;;;;6.33;6.33;;;;;22.82;48.30;100914.78;5138453;27;45467;-76
2023/07/20 09:26:48;;;;;;;;;6.00;3.33;;;;;22.66;47.16;100877.53;5138714;27;45415;-78
2023/07/20 09:29:18;;;;;;;;;8.75;5.50;;;;;23.07;46.95;100913.97;5119973;27;45479;-77
2023/07/20 09:31:59;;;;;;;;;3.33;3.00;;;;;23.24;45.71;100907.66;5119740;27;46157;-77
2023/07/20 09:34:25;;;;;;;;;5.25;2.50;;;;;23.30;45.10;100898.00;5118726;27;45308;-77
2023/07/20 09:36:50;;;;;;;;;4.33;4.33;;;;;23.60;45.96;100912.13;5138644;27;45791;-78
2023/07/20 09:39:16;;;;;;;;;3.75;3.75;;;;;23.73;45.02;100909.81;5138895;27;45511;-78
2023/07/20 09:41:42;;;;;;;;;3.50;3.50;;;;;23.82;43.30;100903.38;5138543;27;45325;-78
2023/07/20 09:44:10;;;;;;;;;3.00;2.00;;;;;23.80;42.30;100889.09;5120059;27;45360;-78
2023/07/20 09:46:49;;;;;;;;;3.75;3.75;;;;;23.66;43.73;100892.44;5120026;27;45259;-79
2023/07/20 09:49:14;;;;;;;;;3.00;3.00;;;;;23.65;44.19;100898.88;5138553;27;45614;-79
2023/07/20 09:51:42;;;;;;;;;2.25;2.00;;;;;23.52;43.90;100905.59;5138241;27;45331;-78
2023/07/20 09:54:08;;;;;;;;;4.00;4.00;;;;;23.32;44.94;100896.00;5119810;27;45377;-76
2023/07/20 09:56:34;;;;;;;;;4.00;4.00;;;;;23.27;44.09;100901.03;5138446;27;45274;-77
2023/07/20 09:59:00;;;;;;;;;4.25;3.25;;;;;23.21;43.30;100893.56;5119959;27;45461;-78
2023/07/20 10:01:28;;;;;;;;;2.00;2.00;;;;;23.30;43.42;100903.41;5119267;27;47091;-77
2023/07/20 10:03:54;;;;;;;;;2.50;2.50;;;;;23.40;43.12;100898.75;5138070;27;45468;-77
2023/07/20 10:06:24;;;;;;;;;3.50;2.50;;;;;23.36;42.79;100899.22;5138259;27;45478;-78
2023/07/20 10:08:53;;;;;;;;;3.50;2.25;;;;;23.03;41.57;100862.91;5138189;27;45268;-80
2023/07/20 10:11:21;;;;;;;;;2.25;2.00;;;;;22.92;42.13;100862.19;5119139;27;48623;-77
2023/07/20 10:13:52;;;;;;;;;2.00;2.00;;;;;23.04;42.26;100880.88;5118952;27;45272;-76
2023/07/20 10:16:26;;;;;;;;;2.50;2.50;;;;;23.25;42.41;100889.50;5119312;27;45356;-77
2023/07/20 10:19:06;;;;;;;;;2.75;2.75;;;;;23.63;41.05;100884.63;5138011;27;45466;-78
2023/07/20 10:21:35;;;;;;;;;6.50;4.50;;;;;23.88;40.73;100881.00;5137615;27;45335;-78
2023/07/20 10:24:01;;;;;;;;;2.25;2.25;;;;;24.11;40.01;100871.22;5137766;27;45275;-78
2023/07/20 10:26:26;;;;;;;;;3.00;3.00;;;;;24.30;40.07;100858.34;5137981;27;45386;-78
2023/07/20 10:28:53;;;;;;;;;5.00;3.50;;;;;24.57;39.32;100871.59;5137947;27;45490;-77
2023/07/20 10:31:19;;;;;;;;;3.00;3.00;;;;;24.60;39.51;100865.81;5118971;27;45520;-79
2023/07/20 10:33:46;;;;;;;;;3.75;3.00;;;;;24.50;40.19;100848.84;5137317;27;45510;-75
2023/07/20 10:36:12;;;;;;;;;2.25;2.25;;;;;24.51;39.91;100850.56;5137928;27;45354;-77
2023/07/20 10:38:46;;;;;;;;;3.75;2.50;;;;;24.42;40.36;100857.84;5138209;27;45491;-78
2023/07/20 10:41:25;;;;;;;;;2.75;2.75;;;;;24.46;40.19;100854.78;5137784;27;46305;-79
2023/07/20 10:43:51;;;;;;;;;4.50;4.50;;;;;24.33;40.42;100833.53;5137366;27;45252;-77
2023/07/20 10:46:45;;;;;;;;;4.75;4.75;;;;;24.52;40.81;100857.69;5140627;27;45482;-77
2023/07/20 10:49:12;;;;;;;;;5.00;5.00;;;;;24.68;40.05;100854.09;5141623;27;45424;-77
2023/07/20 10:51:46;;;;;;;;;4.50;3.00;;;;;24.82;39.81;100845.25;5140981;27;47579;-79
2023/07/20 10:54:18;;;;;;;;;6.25;3.75;;;;;25.05;39.85;100855.44;5122536;27;45394;-78
2023/07/20 10:56:47;;;;;;;;;5.25;3.50;;;;;25.19;39.27;100854.72;5141511;27;45269;-79
2023/07/20 10:59:35;;;;;;;;;2.25;2.25;;;;;25.23;39.16;100835.13;5141641;27;45402;-78
2023/07/20 11:02:06;;;;;;;;;5.00;2.50;;;;;25.20;37.67;100824.59;5140959;27;45380;-77
2023/07/20 11:04:42;;;;;;;;;2.20;2.20;;;;;25.43;37.72;100849.22;5121879;27;45519;-78
2023/07/20 11:07:07;;;;;;;;;2.75;2.75;;;;;25.52;38.11;100844.56;5140835;27;45489;-78
2023/07/20 11:09:37;;;;;;;;;3.75;2.25;;;;;25.56;37.04;100837.75;5141188;27;45518;-78
2023/07/20 11:12:17;;;;;;;;;2.50;2.50;;;;;25.46;36.73;100798.97;5140535;27;45393;-78
2023/07/20 11:15:04;;;;;;;;;0.80;0.80;;;;;25.65;35.20;100839.38;5141108;27;45390;-76
2023/07/20 11:17:33;;;;;;;;;2.25;2.00;;;;;25.51;36.00;100782.94;5121964;27;45991;-76
2023/07/20 11:20:03;;;;;;;;;1.00;1.00;;;;;25.90;35.86;100799.25;5141010;27;45209;-77
2023/07/20 11:22:30;;;;;;;;;1.75;1.75;;;;;26.41;34.61;100827.69;5140600;27;46229;-76
2023/07/20 11:24:57;;;;;;;;;2.00;2.00;;;;;26.70;34.44;100817.94;5140738;27;45389;-74